ADDS METAR Data INFO
IDs: Format: Raw Decoded Include TAF

Data at: 1514 UTC 11 Dec 2017

KFYV 111453Z 17005KT 10SM CLR 04/M01 A3013 RMK AO2 SLP210 T00391011 57010
KFYV 111353Z 18004KT 10SM CLR M01/M04 A3014 RMK AO2 SLP216 T10111039
KFYV 111253Z 20003KT 10SM CLR M03/M05 A3015 RMK AO2 SLP219 T10331050
KFYV 111153Z 20005KT 10SM CLR M02/M05 A3017 RMK AO2 SLP220 T10221050 10017 21039 55010
KFYV 111053Z AUTO 20003KT 10SM CLR M02/M04 A3016 RMK AO2 SLP217 T10221044
KFYV 110953Z AUTO 20004KT 10SM CLR M02/M04 A3019 RMK AO2 SLP224 T10221044
KFYV 110853Z AUTO 20003KT 10SM CLR M01/M04 A3020 RMK AO2 SLP227 T10111039 56010
KFYV 110753Z AUTO 00000KT 10SM CLR M01/M04 A3020 RMK AO2 SLP229 T10111044
KFYV 110653Z AUTO 00000KT 10SM CLR M02/M04 A3022 RMK AO2 SLP235 T10171044
KFYV 110553Z AUTO VRB04KT 10SM CLR 01/M03 A3023 RMK AO2 SLP239 T00061033 10100 21017 401561067 53004
KFYV 110453Z AUTO 00000KT 10SM CLR M01/M04 A3022 RMK AO2 SLP238 T10061039
KFYV 110353Z 18006KT 10SM CLR 01/M03 A3022 RMK AO2 SLP237 T00061033
KFYV 110253Z 16003KT 10SM CLR 01/M03 A3022 RMK AO2 SLP238 T00111033 51004
KFYV 110153Z 21007KT 10SM CLR 03/M04 A3021 RMK AO2 SLP238 T00331039
KFYV 110053Z 20007KT 10SM CLR 04/M04 A3021 RMK AO2 SLP240 T00391039
KFYV 102353Z 21004KT 10SM CLR 09/M05 A3020 RMK AO2 SLP235 T00891050 10156 20089 53008
KFYV 102253Z 26005KT 10SM CLR 12/M04 A3020 RMK AO2 SLP231 T01171044
KFYV 102153Z 28010KT 10SM CLR 14/M05 A3019 RMK AO2 SLP226 T01391050
KFYV 102053Z AUTO 28013G17KT 10SM CLR 15/M06 A3018 RMK AO2 SLP223 T01501056 55009
KFYV 101953Z 30007KT 10SM CLR 15/M04 A3017 RMK AO2 SLP222 T01501044
KFYV 101853Z 23007KT 10SM CLR 14/M05 A3018 RMK AO2 SLP224 T01391050
KFYV 101753Z 25008KT 10SM CLR 13/M04 A3021 RMK AO2 SLP235 T01281044 10128 21061 58005
KFYV 101653Z 24010KT 10SM CLR 11/M04 A3022 RMK AO2 SLP239 T01111044
KFYV 101553Z 23016G21KT 10SM CLR 11/M04 A3021 RMK AO2 SLP236 T01061044
KFYV 101453Z 20007KT 10SM CLR 06/M02 A3022 RMK AO2 SLP242 T00611017 56008
KFYV 101353Z 20008KT 10SM CLR 00/M04 A3023 RMK AO2 SLP247 T00001039
KFYV 101253Z 20009KT 10SM CLR M04/M07 A3024 RMK AO2 SLP251 T10441067
KFYV 101153Z 20006KT 10SM CLR M06/M07 A3025 RMK AO2 SLP253 T10611072 11044 21067 56008
KFYV 101053Z AUTO 20005KT 10SM CLR M06/M07 A3025 RMK AO2 SLP253 T10561072
KFYV 100953Z AUTO 19004KT 10SM CLR M05/M07 A3026 RMK AO2 SLP256 T10501067
KFYV 100853Z AUTO 19006KT 10SM CLR M06/M07 A3027 RMK AO2 SLP259 T10561067 55001
KFYV 100753Z AUTO 20004KT 10SM CLR M06/M07 A3026 RMK AO2 SLP256 T10561067
KFYV 100653Z AUTO 00000KT 10SM CLR M06/M07 A3027 RMK AO2 SLP258 T10611072
KFYV 100553Z AUTO 00000KT 10SM CLR M05/M07 A3027 RMK AO2 SLP260 T10501067 10033 21056 400781056 50000
KFYV 100453Z AUTO 00000KT 10SM CLR M04/M06 A3028 RMK AO2 SLP263 T10391061
KFYV 100353Z 00000KT 10SM CLR M04/M07 A3028 RMK AO2 SLP263 T10441067